sensor_id;sensor_type;location;lat;lon;timestamp;P1;durP1;ratioP1;P2;durP2;ratioP2
23608;SDS011;11982;50.810;4.442;2023-03-14T00:00:47;7.30;;;1.77;;
23608;SDS011;11982;50.810;4.442;2023-03-14T00:03:13;8.27;;;1.75;;
23608;SDS011;11982;50.810;4.442;2023-03-14T00:05:39;14.65;;;2.67;;
23608;SDS011;11982;50.810;4.442;2023-03-14T00:08:05;14.80;;;2.22;;
23608;SDS011;11982;50.810;4.442;2023-03-14T00:10:31;11.25;;;1.85;;
23608;SDS011;11982;50.810;4.442;2023-03-14T00:12:57;11.65;;;2.53;;
23608;SDS011;11982;50.810;4.442;2023-03-14T00:15:22;11.48;;;2.00;;
23608;SDS011;11982;50.810;4.442;2023-03-14T00:17:52;10.00;;;2.05;;
23608;SDS011;11982;50.810;4.442;2023-03-14T00:20:17;13.57;;;1.83;;
23608;SDS011;11982;50.810;4.442;2023-03-14T00:22:43;11.63;;;1.83;;
23608;SDS011;11982;50.810;4.442;2023-03-14T00:25:09;8.35;;;1.45;;
23608;SDS011;11982;50.810;4.442;2023-03-14T00:27:36;14.93;;;2.22;;
23608;SDS011;11982;50.810;4.442;2023-03-14T00:30:02;14.80;;;2.25;;
23608;SDS011;11982;50.810;4.442;2023-03-14T00:32:28;11.70;;;2.08;;
23608;SDS011;11982;50.810;4.442;2023-03-14T00:34:54;20.05;;;3.47;;
23608;SDS011;11982;50.810;4.442;2023-03-14T00:37:20;12.98;;;2.50;;
23608;SDS011;11982;50.810;4.442;2023-03-14T00:39:45;13.20;;;2.80;;
23608;SDS011;11982;50.810;4.442;2023-03-14T00:42:11;12.85;;;2.63;;
23608;SDS011;11982;50.810;4.442;2023-03-14T00:44:37;12.52;;;2.45;;
23608;SDS011;11982;50.810;4.442;2023-03-14T00:47:02;17.33;;;2.60;;
23608;SDS011;11982;50.810;4.442;2023-03-14T00:49:28;13.57;;;2.00;;
23608;SDS011;11982;50.810;4.442;2023-03-14T00:51:54;16.80;;;2.35;;
23608;SDS011;11982;50.810;4.442;2023-03-14T00:54:20;12.10;;;2.38;;
23608;SDS011;11982;50.810;4.442;2023-03-14T00:56:45;17.58;;;2.80;;
23608;SDS011;11982;50.810;4.442;2023-03-14T00:59:12;15.98;;;2.85;;
23608;SDS011;11982;50.810;4.442;2023-03-14T01:01:38;16.67;;;1.98;;
23608;SDS011;11982;50.810;4.442;2023-03-14T01:04:04;19.77;;;2.45;;
23608;SDS011;11982;50.810;4.442;2023-03-14T01:06:30;16.40;;;2.40;;
23608;SDS011;11982;50.810;4.442;2023-03-14T01:08:56;15.27;;;2.90;;
23608;SDS011;11982;50.810;4.442;2023-03-14T01:11:24;16.40;;;3.00;;
23608;SDS011;11982;50.810;4.442;2023-03-14T01:13:51;16.10;;;2.65;;
23608;SDS011;11982;50.810;4.442;2023-03-14T01:16:18;21.02;;;3.22;;
23608;SDS011;11982;50.810;4.442;2023-03-14T01:18:45;15.00;;;2.33;;
23608;SDS011;11982;50.810;4.442;2023-03-14T01:21:18;15.52;;;2.90;;
23608;SDS011;11982;50.810;4.442;2023-03-14T01:23:52;16.90;;;2.40;;
23608;SDS011;11982;50.810;4.442;2023-03-14T01:26:20;20.80;;;2.70;;
23608;SDS011;11982;50.810;4.442;2023-03-14T01:28:48;14.77;;;3.10;;
23608;SDS011;11982;50.810;4.442;2023-03-14T01:31:14;19.30;;;3.42;;
23608;SDS011;11982;50.810;4.442;2023-03-14T01:33:41;18.08;;;3.13;;
23608;SDS011;11982;50.810;4.442;2023-03-14T01:36:07;14.40;;;2.60;;
23608;SDS011;11982;50.810;4.442;2023-03-14T01:38:34;15.18;;;2.80;;
23608;SDS011;11982;50.810;4.442;2023-03-14T01:41:01;11.75;;;2.42;;
23608;SDS011;11982;50.810;4.442;2023-03-14T01:43:28;9.35;;;1.55;;
23608;SDS011;11982;50.810;4.442;2023-03-14T01:48:32;10.90;;;2.17;;
23608;SDS011;11982;50.810;4.442;2023-03-14T01:51:22;11.38;;;1.77;;
23608;SDS011;11982;50.810;4.442;2023-03-14T01:54:02;6.07;;;1.25;;
23608;SDS011;11982;50.810;4.442;2023-03-14T01:56:33;8.38;;;1.88;;
23608;SDS011;11982;50.810;4.442;2023-03-14T01:59:00;8.50;;;2.25;;
23608;SDS011;11982;50.810;4.442;2023-03-14T02:01:29;7.63;;;1.67;;
23608;SDS011;11982;50.810;4.442;2023-03-14T02:03:55;13.50;;;1.30;;
23608;SDS011;11982;50.810;4.442;2023-03-14T02:06:27;8.13;;;1.63;;
23608;SDS011;11982;50.810;4.442;2023-03-14T02:08:59;9.38;;;1.30;;
23608;SDS011;11982;50.810;4.442;2023-03-14T02:11:26;7.68;;;1.58;;
23608;SDS011;11982;50.810;4.442;2023-03-14T02:13:55;8.00;;;1.35;;
23608;SDS011;11982;50.810;4.442;2023-03-14T02:16:23;10.07;;;1.77;;
23608;SDS011;11982;50.810;4.442;2023-03-14T02:18:49;5.05;;;1.05;;
23608;SDS011;11982;50.810;4.442;2023-03-14T02:27:04;7.80;;;1.38;;
23608;SDS011;11982;50.810;4.442;2023-03-14T02:29:36;4.70;;;0.98;;
23608;SDS011;11982;50.810;4.442;2023-03-14T02:32:06;11.32;;;1.33;;
23608;SDS011;11982;50.810;4.442;2023-03-14T02:34:32;7.30;;;1.10;;
23608;SDS011;11982;50.810;4.442;2023-03-14T02:36:59;7.90;;;1.83;;
23608;SDS011;11982;50.810;4.442;2023-03-14T02:39:27;11.15;;;1.92;;
23608;SDS011;11982;50.810;4.442;2023-03-14T02:42:01;12.07;;;2.78;;
23608;SDS011;11982;50.810;4.442;2023-03-14T02:44:27;14.93;;;2.78;;
23608;SDS011;11982;50.810;4.442;2023-03-14T02:46:53;16.10;;;2.80;;
23608;SDS011;11982;50.810;4.442;2023-03-14T02:49:18;10.63;;;2.78;;
23608;SDS011;11982;50.810;4.442;2023-03-14T02:51:44;10.88;;;3.00;;
23608;SDS011;11982;50.810;4.442;2023-03-14T02:54:11;18.95;;;3.13;;
23608;SDS011;11982;50.810;4.442;2023-03-14T02:56:37;12.13;;;3.03;;
23608;SDS011;11982;50.810;4.442;2023-03-14T02:59:04;13.13;;;3.25;;
23608;SDS011;11982;50.810;4.442;2023-03-14T03:01:30;16.90;;;3.72;;
23608;SDS011;11982;50.810;4.442;2023-03-14T03:03:55;24.13;;;4.38;;
23608;SDS011;11982;50.810;4.442;2023-03-14T03:06:21;12.95;;;3.53;;
23608;SDS011;11982;50.810;4.442;2023-03-14T03:08:47;19.27;;;3.88;;
23608;SDS011;11982;50.810;4.442;2023-03-14T03:11:13;28.63;;;4.30;;
23608;SDS011;11982;50.810;4.442;2023-03-14T03:13:38;14.35;;;3.20;;
23608;SDS011;11982;50.810;4.442;2023-03-14T03:16:04;21.20;;;3.65;;
23608;SDS011;11982;50.810;4.442;2023-03-14T03:18:30;17.20;;;3.72;;
23608;SDS011;11982;50.810;4.442;2023-03-14T03:20:59;18.98;;;4.50;;
23608;SDS011;11982;50.810;4.442;2023-03-14T03:23:25;17.50;;;4.18;;
23608;SDS011;11982;50.810;4.442;2023-03-14T03:25:51;25.60;;;4.00;;
23608;SDS011;11982;50.810;4.442;2023-03-14T03:28:17;24.17;;;3.97;;
23608;SDS011;11982;50.810;4.442;2023-03-14T03:30:44;20.27;;;4.47;;
23608;SDS011;11982;50.810;4.442;2023-03-14T03:33:10;28.45;;;4.65;;
23608;SDS011;11982;50.810;4.442;2023-03-14T03:35:43;12.65;;;3.47;;
23608;SDS011;11982;50.810;4.442;2023-03-14T03:38:10;18.35;;;4.65;;
23608;SDS011;11982;50.810;4.442;2023-03-14T03:40:36;23.75;;;4.50;;
23608;SDS011;11982;50.810;4.442;2023-03-14T03:43:02;13.38;;;3.10;;
23608;SDS011;11982;50.810;4.442;2023-03-14T03:45:29;16.80;;;3.80;;
23608;SDS011;11982;50.810;4.442;2023-03-14T03:47:55;20.30;;;3.90;;
23608;SDS011;11982;50.810;4.442;2023-03-14T03:50:21;13.35;;;3.90;;
23608;SDS011;11982;50.810;4.442;2023-03-14T03:52:47;15.65;;;4.07;;
23608;SDS011;11982;50.810;4.442;2023-03-14T03:55:12;29.00;;;5.13;;
23608;SDS011;11982;50.810;4.442;2023-03-14T03:57:38;19.30;;;4.15;;
23608;SDS011;11982;50.810;4.442;2023-03-14T04:00:04;14.02;;;4.15;;
23608;SDS011;11982;50.810;4.442;2023-03-14T04:02:31;16.83;;;4.65;;
23608;SDS011;11982;50.810;4.442;2023-03-14T04:04:57;18.98;;;4.78;;
23608;SDS011;11982;50.810;4.442;2023-03-14T04:07:23;16.73;;;4.75;;
23608;SDS011;11982;50.810;4.442;2023-03-14T04:09:49;15.45;;;4.85;;
23608;SDS011;11982;50.810;4.442;2023-03-14T04:12:15;20.42;;;5.72;;
23608;SDS011;11982;50.810;4.442;2023-03-14T04:14:40;19.60;;;4.82;;
23608;SDS011;11982;50.810;4.442;2023-03-14T04:17:06;19.60;;;6.05;;
23608;SDS011;11982;50.810;4.442;2023-03-14T04:19:33;17.75;;;5.65;;
23608;SDS011;11982;50.810;4.442;2023-03-14T04:21:59;17.38;;;5.80;;
23608;SDS011;11982;50.810;4.442;2023-03-14T04:24:24;18.65;;;5.88;;
23608;SDS011;11982;50.810;4.442;2023-03-14T04:26:50;13.60;;;4.80;;
23608;SDS011;11982;50.810;4.442;2023-03-14T04:29:15;16.80;;;5.43;;
23608;SDS011;11982;50.810;4.442;2023-03-14T04:31:41;14.57;;;4.88;;
23608;SDS011;11982;50.810;4.442;2023-03-14T04:34:07;18.25;;;4.90;;
23608;SDS011;11982;50.810;4.442;2023-03-14T04:36:33;13.20;;;4.32;;
23608;SDS011;11982;50.810;4.442;2023-03-14T04:38:58;13.18;;;4.32;;
23608;SDS011;11982;50.810;4.442;2023-03-14T04:41:24;14.98;;;5.38;;
23608;SDS011;11982;50.810;4.442;2023-03-14T04:43:49;18.77;;;5.38;;
23608;SDS011;11982;50.810;4.442;2023-03-14T04:46:15;12.20;;;5.70;;
23608;SDS011;11982;50.810;4.442;2023-03-14T04:48:41;16.60;;;6.25;;
23608;SDS011;11982;50.810;4.442;2023-03-14T04:51:07;19.48;;;6.30;;
23608;SDS011;11982;50.810;4.442;2023-03-14T04:53:32;16.60;;;6.03;;
23608;SDS011;11982;50.810;4.442;2023-03-14T04:55:59;12.45;;;5.78;;
23608;SDS011;11982;50.810;4.442;2023-03-14T04:58:25;12.45;;;6.15;;
23608;SDS011;11982;50.810;4.442;2023-03-14T05:00:50;15.38;;;5.65;;
23608;SDS011;11982;50.810;4.442;2023-03-14T05:03:17;12.25;;;5.68;;
23608;SDS011;11982;50.810;4.442;2023-03-14T05:05:43;21.10;;;7.22;;
23608;SDS011;11982;50.810;4.442;2023-03-14T05:08:10;18.67;;;8.13;;
23608;SDS011;11982;50.810;4.442;2023-03-14T05:10:35;18.08;;;7.95;;
23608;SDS011;11982;50.810;4.442;2023-03-14T05:13:01;13.95;;;7.68;;
23608;SDS011;11982;50.810;4.442;2023-03-14T05:15:26;18.08;;;8.32;;
23608;SDS011;11982;50.810;4.442;2023-03-14T05:17:52;15.57;;;8.27;;
23608;SDS011;11982;50.810;4.442;2023-03-14T05:20:19;18.48;;;8.65;;
23608;SDS011;11982;50.810;4.442;2023-03-14T05:22:45;12.82;;;7.07;;
23608;SDS011;11982;50.810;4.442;2023-03-14T05:25:11;13.85;;;7.25;;
23608;SDS011;11982;50.810;4.442;2023-03-14T05:27:37;14.68;;;7.00;;
23608;SDS011;11982;50.810;4.442;2023-03-14T05:30:03;14.63;;;6.38;;
23608;SDS011;11982;50.810;4.442;2023-03-14T05:32:30;10.65;;;6.90;;
23608;SDS011;11982;50.810;4.442;2023-03-14T05:34:57;10.25;;;6.03;;
23608;SDS011;11982;50.810;4.442;2023-03-14T05:37:27;13.25;;;5.95;;
23608;SDS011;11982;50.810;4.442;2023-03-14T05:39:53;12.65;;;5.72;;
23608;SDS011;11982;50.810;4.442;2023-03-14T05:42:19;9.85;;;4.68;;
23608;SDS011;11982;50.810;4.442;2023-03-14T05:44:45;13.15;;;5.47;;
23608;SDS011;11982;50.810;4.442;2023-03-14T05:47:10;9.25;;;5.43;;
23608;SDS011;11982;50.810;4.442;2023-03-14T05:49:36;12.50;;;4.90;;
23608;SDS011;11982;50.810;4.442;2023-03-14T05:52:02;13.75;;;5.63;;
23608;SDS011;11982;50.810;4.442;2023-03-14T05:54:28;11.80;;;5.70;;
23608;SDS011;11982;50.810;4.442;2023-03-14T05:56:53;11.65;;;5.25;;
23608;SDS011;11982;50.810;4.442;2023-03-14T05:59:19;10.23;;;5.15;;
23608;SDS011;11982;50.810;4.442;2023-03-14T06:01:44;9.25;;;5.18;;
23608;SDS011;11982;50.810;4.442;2023-03-14T06:04:10;11.50;;;5.15;;
23608;SDS011;11982;50.810;4.442;2023-03-14T06:06:36;10.55;;;5.00;;
23608;SDS011;11982;50.810;4.442;2023-03-14T06:09:01;11.20;;;5.15;;
23608;SDS011;11982;50.810;4.442;2023-03-14T06:11:27;13.25;;;5.63;;
23608;SDS011;11982;50.810;4.442;2023-03-14T06:13:53;13.27;;;5.53;;
23608;SDS011;11982;50.810;4.442;2023-03-14T06:16:18;12.85;;;5.50;;
23608;SDS011;11982;50.810;4.442;2023-03-14T06:18:44;11.07;;;6.05;;
23608;SDS011;11982;50.810;4.442;2023-03-14T06:21:11;13.20;;;5.97;;
23608;SDS011;11982;50.810;4.442;2023-03-14T06:23:37;9.38;;;5.50;;
23608;SDS011;11982;50.810;4.442;2023-03-14T06:26:03;9.73;;;5.85;;
23608;SDS011;11982;50.810;4.442;2023-03-14T06:28:30;8.93;;;5.07;;
23608;SDS011;11982;50.810;4.442;2023-03-14T06:30:55;12.13;;;4.60;;
23608;SDS011;11982;50.810;4.442;2023-03-14T06:33:21;12.82;;;5.35;;
23608;SDS011;11982;50.810;4.442;2023-03-14T06:35:47;8.05;;;4.57;;
23608;SDS011;11982;50.810;4.442;2023-03-14T06:38:12;6.45;;;4.20;;
23608;SDS011;11982;50.810;4.442;2023-03-14T06:40:38;10.07;;;4.28;;
23608;SDS011;11982;50.810;4.442;2023-03-14T06:43:04;8.15;;;4.20;;
23608;SDS011;11982;50.810;4.442;2023-03-14T06:45:29;8.50;;;4.28;;
23608;SDS011;11982;50.810;4.442;2023-03-14T06:47:55;6.30;;;3.67;;
23608;SDS011;11982;50.810;4.442;2023-03-14T06:50:21;6.28;;;3.80;;
23608;SDS011;11982;50.810;4.442;2023-03-14T06:52:47;6.38;;;3.70;;
23608;SDS011;11982;50.810;4.442;2023-03-14T06:55:13;4.07;;;2.50;;
23608;SDS011;11982;50.810;4.442;2023-03-14T06:57:40;4.32;;;2.92;;
23608;SDS011;11982;50.810;4.442;2023-03-14T07:00:06;7.93;;;3.90;;
23608;SDS011;11982;50.810;4.442;2023-03-14T07:02:33;5.72;;;4.00;;
23608;SDS011;11982;50.810;4.442;2023-03-14T07:04:59;5.55;;;3.97;;
23608;SDS011;11982;50.810;4.442;2023-03-14T07:07:25;10.57;;;5.35;;
23608;SDS011;11982;50.810;4.442;2023-03-14T07:09:51;11.25;;;5.65;;
23608;SDS011;11982;50.810;4.442;2023-03-14T07:12:17;9.45;;;4.43;;
23608;SDS011;11982;50.810;4.442;2023-03-14T07:14:43;8.57;;;4.40;;
23608;SDS011;11982;50.810;4.442;2023-03-14T07:17:08;8.40;;;3.42;;
23608;SDS011;11982;50.810;4.442;2023-03-14T07:19:34;4.10;;;2.20;;
23608;SDS011;11982;50.810;4.442;2023-03-14T07:22:00;8.68;;;3.10;;
23608;SDS011;11982;50.810;4.442;2023-03-14T07:24:26;6.30;;;2.88;;
23608;SDS011;11982;50.810;4.442;2023-03-14T07:26:51;8.20;;;2.72;;
23608;SDS011;11982;50.810;4.442;2023-03-14T07:29:17;6.22;;;2.65;;
23608;SDS011;11982;50.810;4.442;2023-03-14T07:31:43;8.52;;;3.25;;
23608;SDS011;11982;50.810;4.442;2023-03-14T07:34:08;7.63;;;3.63;;
23608;SDS011;11982;50.810;4.442;2023-03-14T07:36:34;9.05;;;2.85;;
23608;SDS011;11982;50.810;4.442;2023-03-14T07:39:00;8.45;;;3.38;;
23608;SDS011;11982;50.810;4.442;2023-03-14T07:41:25;10.65;;;4.25;;
23608;SDS011;11982;50.810;4.442;2023-03-14T07:43:51;12.55;;;4.00;;
23608;SDS011;11982;50.810;4.442;2023-03-14T07:46:17;7.03;;;3.70;;
23608;SDS011;11982;50.810;4.442;2023-03-14T07:48:44;5.28;;;3.70;;
23608;SDS011;11982;50.810;4.442;2023-03-14T07:51:10;8.65;;;3.80;;
23608;SDS011;11982;50.810;4.442;2023-03-14T07:53:36;9.32;;;3.65;;
23608;SDS011;11982;50.810;4.442;2023-03-14T07:56:01;6.75;;;3.47;;
23608;SDS011;11982;50.810;4.442;2023-03-14T07:58:27;13.95;;;4.53;;
23608;SDS011;11982;50.810;4.442;2023-03-14T08:00:53;11.05;;;5.07;;
23608;SDS011;11982;50.810;4.442;2023-03-14T08:03:18;7.35;;;4.32;;
23608;SDS011;11982;50.810;4.442;2023-03-14T08:05:46;11.75;;;4.78;;
23608;SDS011;11982;50.810;4.442;2023-03-14T08:08:13;15.68;;;6.10;;
23608;SDS011;11982;50.810;4.442;2023-03-14T08:10:39;15.18;;;5.68;;
23608;SDS011;11982;50.810;4.442;2023-03-14T08:13:04;13.82;;;5.90;;
23608;SDS011;11982;50.810;4.442;2023-03-14T08:15:30;13.70;;;5.63;;
23608;SDS011;11982;50.810;4.442;2023-03-14T08:17:56;11.25;;;5.95;;
23608;SDS011;11982;50.810;4.442;2023-03-14T08:20:23;16.52;;;6.65;;
23608;SDS011;11982;50.810;4.442;2023-03-14T08:22:51;19.33;;;7.43;;
23608;SDS011;11982;50.810;4.442;2023-03-14T08:25:17;13.73;;;6.68;;
23608;SDS011;11982;50.810;4.442;2023-03-14T08:27:43;13.60;;;5.30;;
23608;SDS011;11982;50.810;4.442;2023-03-14T08:30:09;21.80;;;5.85;;
23608;SDS011;11982;50.810;4.442;2023-03-14T08:32:37;13.25;;;5.20;;
23608;SDS011;11982;50.810;4.442;2023-03-14T08:35:03;10.27;;;4.70;;
23608;SDS011;11982;50.810;4.442;2023-03-14T08:37:33;14.27;;;5.20;;
23608;SDS011;11982;50.810;4.442;2023-03-14T08:40:00;8.32;;;5.00;;
23608;SDS011;11982;50.810;4.442;2023-03-14T08:42:26;18.08;;;6.18;;
23608;SDS011;11982;50.810;4.442;2023-03-14T08:44:52;11.18;;;4.97;;
23608;SDS011;11982;50.810;4.442;2023-03-14T08:47:18;7.15;;;3.00;;
23608;SDS011;11982;50.810;4.442;2023-03-14T08:49:44;11.18;;;3.30;;
23608;SDS011;11982;50.810;4.442;2023-03-14T08:52:10;8.07;;;3.17;;
23608;SDS011;11982;50.810;4.442;2023-03-14T08:54:36;11.73;;;3.97;;
23608;SDS011;11982;50.810;4.442;2023-03-14T08:57:01;11.57;;;4.70;;
23608;SDS011;11982;50.810;4.442;2023-03-14T08:59:27;11.02;;;4.22;;
23608;SDS011;11982;50.810;4.442;2023-03-14T09:01:53;8.27;;;3.90;;
23608;SDS011;11982;50.810;4.442;2023-03-14T09:04:19;12.40;;;4.32;;
23608;SDS011;11982;50.810;4.442;2023-03-14T09:06:45;14.95;;;4.20;;
23608;SDS011;11982;50.810;4.442;2023-03-14T09:09:11;16.25;;;5.22;;
23608;SDS011;11982;50.810;4.442;2023-03-14T09:11:38;12.15;;;4.75;;
23608;SDS011;11982;50.810;4.442;2023-03-14T09:14:04;17.25;;;5.05;;
23608;SDS011;11982;50.810;4.442;2023-03-14T09:16:30;14.43;;;4.88;;
23608;SDS011;11982;50.810;4.442;2023-03-14T09:18:55;20.73;;;4.60;;
23608;SDS011;11982;50.810;4.442;2023-03-14T09:21:24;13.80;;;4.10;;
23608;SDS011;11982;50.810;4.442;2023-03-14T09:23:51;15.27;;;4.90;;
23608;SDS011;11982;50.810;4.442;2023-03-14T09:26:16;17.90;;;4.70;;
23608;SDS011;11982;50.810;4.442;2023-03-14T09:28:42;19.55;;;5.55;;
23608;SDS011;11982;50.810;4.442;2023-03-14T09:31:09;20.25;;;5.15;;
23608;SDS011;11982;50.810;4.442;2023-03-14T09:33:36;19.85;;;5.80;;
23608;SDS011;11982;50.810;4.442;2023-03-14T09:36:02;14.85;;;4.95;;
23608;SDS011;11982;50.810;4.442;2023-03-14T09:38:29;22.45;;;4.63;;
23608;SDS011;11982;50.810;4.442;2023-03-14T09:40:55;23.45;;;5.20;;
23608;SDS011;11982;50.810;4.442;2023-03-14T09:43:23;20.25;;;4.55;;
23608;SDS011;11982;50.810;4.442;2023-03-14T09:45:50;18.45;;;5.05;;
23608;SDS011;11982;50.810;4.442;2023-03-14T09:48:21;21.48;;;4.20;;
23608;SDS011;11982;50.810;4.442;2023-03-14T09:50:50;21.13;;;3.90;;
23608;SDS011;11982;50.810;4.442;2023-03-14T09:53:26;14.43;;;4.70;;
23608;SDS011;11982;50.810;4.442;2023-03-14T09:56:04;9.38;;;3.03;;
23608;SDS011;11982;50.810;4.442;2023-03-14T09:58:40;18.33;;;3.85;;
23608;SDS011;11982;50.810;4.442;2023-03-14T10:01:07;19.30;;;3.58;;
23608;SDS011;11982;50.810;4.442;2023-03-14T10:03:38;14.27;;;3.75;;
23608;SDS011;11982;50.810;4.442;2023-03-14T10:06:09;12.70;;;3.53;;
23608;SDS011;11982;50.810;4.442;2023-03-14T10:08:43;16.48;;;4.80;;
23608;SDS011;11982;50.810;4.442;2023-03-14T10:11:14;8.93;;;3.10;;
23608;SDS011;11982;50.810;4.442;2023-03-14T10:16:34;13.63;;;4.13;;
23608;SDS011;11982;50.810;4.442;2023-03-14T10:19:11;13.82;;;4.32;;
23608;SDS011;11982;50.810;4.442;2023-03-14T10:21:50;19.73;;;4.10;;
23608;SDS011;11982;50.810;4.442;2023-03-14T10:26:49;14.07;;;3.28;;
23608;SDS011;11982;50.810;4.442;2023-03-14T10:29:18;13.38;;;3.17;;
23608;SDS011;11982;50.810;4.442;2023-03-14T10:34:16;24.15;;;4.53;;
23608;SDS011;11982;50.810;4.442;2023-03-14T10:36:46;11.65;;;2.15;;
23608;SDS011;11982;50.810;4.442;2023-03-14T10:39:24;12.50;;;2.85;;
23608;SDS011;11982;50.810;4.442;2023-03-14T10:41:54;14.27;;;2.70;;
23608;SDS011;11982;50.810;4.442;2023-03-14T10:44:28;16.98;;;2.88;;
23608;SDS011;11982;50.810;4.442;2023-03-14T10:46:59;13.70;;;3.83;;
23608;SDS011;11982;50.810;4.442;2023-03-14T10:49:28;16.25;;;3.78;;
23608;SDS011;11982;50.810;4.442;2023-03-14T10:52:02;9.38;;;2.63;;
23608;SDS011;11982;50.810;4.442;2023-03-14T10:54:37;12.30;;;3.03;;
23608;SDS011;11982;50.810;4.442;2023-03-14T10:57:03;7.22;;;1.73;;
23608;SDS011;11982;50.810;4.442;2023-03-14T10:59:37;14.90;;;2.70;;
23608;SDS011;11982;50.810;4.442;2023-03-14T11:02:13;10.77;;;2.53;;
23608;SDS011;11982;50.810;4.442;2023-03-14T11:07:33;9.88;;;2.78;;
23608;SDS011;11982;50.810;4.442;2023-03-14T11:15:51;12.07;;;3.33;;
23608;SDS011;11982;50.810;4.442;2023-03-14T11:24:04;11.77;;;3.40;;
23608;SDS011;11982;50.810;4.442;2023-03-14T11:26:51;15.67;;;3.77;;
23608;SDS011;11982;50.810;4.442;2023-03-14T11:32:01;13.68;;;2.33;;
23608;SDS011;11982;50.810;4.442;2023-03-14T11:34:33;6.13;;;2.25;;
23608;SDS011;11982;50.810;4.442;2023-03-14T11:37:51;6.25;;;1.60;;
23608;SDS011;11982;50.810;4.442;2023-03-14T11:39:54;5.90;;;1.55;;
23608;SDS011;11982;50.810;4.442;2023-03-14T11:42:27;6.72;;;1.67;;
23608;SDS011;11982;50.810;4.442;2023-03-14T11:44:56;5.28;;;1.20;;
23608;SDS011;11982;50.810;4.442;2023-03-14T11:47:30;2.95;;;0.70;;
23608;SDS011;11982;50.810;4.442;2023-03-14T11:50:21;2.97;;;1.08;;
23608;SDS011;11982;50.810;4.442;2023-03-14T11:55:28;1.73;;;0.70;;
23608;SDS011;11982;50.810;4.442;2023-03-14T12:00:54;1.08;;;0.40;;
23608;SDS011;11982;50.810;4.442;2023-03-14T12:03:34;1.50;;;0.60;;
23608;SDS011;11982;50.810;4.442;2023-03-14T12:08:56;4.82;;;1.00;;
23608;SDS011;11982;50.810;4.442;2023-03-14T12:14:31;3.88;;;1.15;;
23608;SDS011;11982;50.810;4.442;2023-03-14T12:17:21;2.42;;;0.88;;
23608;SDS011;11982;50.810;4.442;2023-03-14T12:19:46;2.50;;;1.17;;
23608;SDS011;11982;50.810;4.442;2023-03-14T12:22:19;3.47;;;0.93;;
23608;SDS011;11982;50.810;4.442;2023-03-14T12:25:04;5.47;;;1.73;;
23608;SDS011;11982;50.810;4.442;2023-03-14T12:27:42;4.40;;;1.60;;
23608;SDS011;11982;50.810;4.442;2023-03-14T12:35:58;4.28;;;2.58;;
23608;SDS011;11982;50.810;4.442;2023-03-14T12:41:24;8.80;;;3.10;;
23608;SDS011;11982;50.810;4.442;2023-03-14T12:47:14;5.45;;;3.60;;
23608;SDS011;11982;50.810;4.442;2023-03-14T12:49:47;8.52;;;3.33;;
23608;SDS011;11982;50.810;4.442;2023-03-14T12:52:16;7.93;;;3.35;;
23608;SDS011;11982;50.810;4.442;2023-03-14T13:00:01;11.25;;;4.18;;
23608;SDS011;11982;50.810;4.442;2023-03-14T13:02:42;7.85;;;2.90;;
23608;SDS011;11982;50.810;4.442;2023-03-14T13:10:30;5.80;;;2.78;;
23608;SDS011;11982;50.810;4.442;2023-03-14T13:15:34;3.40;;;2.30;;
23608;SDS011;11982;50.810;4.442;2023-03-14T13:21:10;4.70;;;2.75;;
23608;SDS011;11982;50.810;4.442;2023-03-14T13:23:37;7.03;;;2.70;;
23608;SDS011;11982;50.810;4.442;2023-03-14T13:26:05;6.00;;;2.72;;
23608;SDS011;11982;50.810;4.442;2023-03-14T13:28:37;11.32;;;3.42;;
23608;SDS011;11982;50.810;4.442;2023-03-14T13:31:04;4.68;;;2.53;;
23608;SDS011;11982;50.810;4.442;2023-03-14T13:33:33;7.85;;;3.60;;
23608;SDS011;11982;50.810;4.442;2023-03-14T13:36:01;13.65;;;3.83;;
23608;SDS011;11982;50.810;4.442;2023-03-14T13:38:30;6.00;;;3.45;;
23608;SDS011;11982;50.810;4.442;2023-03-14T13:40:58;11.65;;;5.13;;
23608;SDS011;11982;50.810;4.442;2023-03-14T13:43:27;15.95;;;4.57;;
23608;SDS011;11982;50.810;4.442;2023-03-14T13:45:56;24.38;;;4.43;;
23608;SDS011;11982;50.810;4.442;2023-03-14T13:48:26;26.13;;;4.75;;
23608;SDS011;11982;50.810;4.442;2023-03-14T13:51:02;25.80;;;4.53;;
23608;SDS011;11982;50.810;4.442;2023-03-14T13:56:15;22.13;;;3.58;;
23608;SDS011;11982;50.810;4.442;2023-03-14T13:58:45;22.98;;;4.07;;
23608;SDS011;11982;50.810;4.442;2023-03-14T14:03:57;31.95;;;4.88;;
23608;SDS011;11982;50.810;4.442;2023-03-14T14:06:31;26.45;;;4.35;;
23608;SDS011;11982;50.810;4.442;2023-03-14T14:09:18;34.65;;;5.18;;
23608;SDS011;11982;50.810;4.442;2023-03-14T14:14:18;23.77;;;3.90;;
23608;SDS011;11982;50.810;4.442;2023-03-14T14:16:53;28.95;;;4.80;;
23608;SDS011;11982;50.810;4.442;2023-03-14T14:19:20;36.53;;;4.50;;
23608;SDS011;11982;50.810;4.442;2023-03-14T14:21:48;25.67;;;4.20;;
23608;SDS011;11982;50.810;4.442;2023-03-14T14:24:15;22.63;;;3.92;;
23608;SDS011;11982;50.810;4.442;2023-03-14T14:26:46;30.13;;;3.85;;
23608;SDS011;11982;50.810;4.442;2023-03-14T14:29:22;19.73;;;4.07;;
23608;SDS011;11982;50.810;4.442;2023-03-14T14:37:21;31.67;;;4.53;;
23608;SDS011;11982;50.810;4.442;2023-03-14T14:39:50;18.05;;;2.42;;
23608;SDS011;11982;50.810;4.442;2023-03-14T14:42:19;19.88;;;2.90;;
23608;SDS011;11982;50.810;4.442;2023-03-14T14:44:49;27.02;;;4.50;;
23608;SDS011;11982;50.810;4.442;2023-03-14T14:47:18;25.30;;;3.13;;
23608;SDS011;11982;50.810;4.442;2023-03-14T14:49:47;25.75;;;3.45;;
23608;SDS011;11982;50.810;4.442;2023-03-14T14:52:16;14.38;;;2.13;;
23608;SDS011;11982;50.810;4.442;2023-03-14T14:54:45;10.20;;;2.30;;
23608;SDS011;11982;50.810;4.442;2023-03-14T14:57:22;12.93;;;1.60;;
23608;SDS011;11982;50.810;4.442;2023-03-14T14:59:50;6.50;;;1.02;;
23608;SDS011;11982;50.810;4.442;2023-03-14T15:04:53;7.03;;;1.08;;
23608;SDS011;11982;50.810;4.442;2023-03-14T15:07:19;11.82;;;1.15;;
23608;SDS011;11982;50.810;4.442;2023-03-14T15:09:45;4.57;;;0.90;;
23608;SDS011;11982;50.810;4.442;2023-03-14T15:12:10;2.70;;;0.88;;
23608;SDS011;11982;50.810;4.442;2023-03-14T15:14:36;3.40;;;0.90;;
23608;SDS011;11982;50.810;4.442;2023-03-14T15:17:02;3.75;;;1.17;;
23608;SDS011;11982;50.810;4.442;2023-03-14T15:19:28;4.35;;;1.15;;
23608;SDS011;11982;50.810;4.442;2023-03-14T15:21:57;6.68;;;1.50;;
23608;SDS011;11982;50.810;4.442;2023-03-14T15:24:23;9.98;;;2.85;;
23608;SDS011;11982;50.810;4.442;2023-03-14T15:26:50;5.68;;;1.40;;
23608;SDS011;11982;50.810;4.442;2023-03-14T15:29:15;4.60;;;1.40;;
23608;SDS011;11982;50.810;4.442;2023-03-14T15:31:41;14.35;;;7.00;;
23608;SDS011;11982;50.810;4.442;2023-03-14T15:34:10;17.77;;;7.88;;
23608;SDS011;11982;50.810;4.442;2023-03-14T15:36:36;12.43;;;5.88;;
23608;SDS011;11982;50.810;4.442;2023-03-14T15:39:03;5.80;;;2.50;;
23608;SDS011;11982;50.810;4.442;2023-03-14T15:41:31;4.47;;;1.50;;
23608;SDS011;11982;50.810;4.442;2023-03-14T15:43:56;8.00;;;1.40;;
23608;SDS011;11982;50.810;4.442;2023-03-14T15:46:22;5.32;;;1.60;;
23608;SDS011;11982;50.810;4.442;2023-03-14T15:48:49;8.20;;;1.60;;
23608;SDS011;11982;50.810;4.442;2023-03-14T15:51:15;5.28;;;1.30;;
23608;SDS011;11982;50.810;4.442;2023-03-14T15:53:41;2.83;;;1.55;;
23608;SDS011;11982;50.810;4.442;2023-03-14T15:56:18;4.30;;;1.50;;
23608;SDS011;11982;50.810;4.442;2023-03-14T15:58:49;6.43;;;1.80;;
23608;SDS011;11982;50.810;4.442;2023-03-14T16:01:15;7.47;;;2.13;;
23608;SDS011;11982;50.810;4.442;2023-03-14T16:03:42;9.20;;;1.73;;
23608;SDS011;11982;50.810;4.442;2023-03-14T16:06:09;5.13;;;1.83;;
23608;SDS011;11982;50.810;4.442;2023-03-14T16:08:35;6.43;;;3.50;;
23608;SDS011;11982;50.810;4.442;2023-03-14T16:11:01;8.18;;;2.35;;